createdAt,value
2018-07-15T14:15:47.264Z,39.48
2018-07-15T14:18:14.268Z,40.00
2018-07-15T14:20:41.296Z,41.13
2018-07-15T14:23:08.297Z,41.76
2018-07-15T14:25:35.382Z,41.30
2018-07-15T14:28:02.532Z,41.29
2018-07-15T14:30:29.561Z,41.48
2018-07-15T14:32:56.669Z,41.76
2018-07-15T14:35:24.260Z,42.73
2018-07-15T14:37:51.313Z,42.23
2018-07-15T14:40:18.404Z,43.03
2018-07-15T14:42:45.717Z,42.45
2018-07-15T14:45:12.689Z,42.68
2018-07-15T14:47:39.761Z,42.43
2018-07-15T14:50:06.925Z,41.76
2018-07-15T14:52:33.992Z,41.67
2018-07-15T14:55:00.972Z,41.41
2018-07-15T14:57:28.048Z,41.93
2018-07-15T14:59:57.296Z,41.30
2018-07-15T15:02:24.332Z,41.91
2018-07-15T15:04:51.310Z,42.28
2018-07-15T15:07:18.421Z,42.22
2018-07-15T15:09:45.437Z,43.95
2018-07-15T15:12:12.412Z,44.42
2018-07-15T15:14:39.659Z,44.74
2018-07-15T15:17:06.830Z,43.31
2018-07-15T15:19:33.874Z,43.54
2018-07-15T15:22:00.949Z,43.91
2018-07-15T15:24:28.133Z,42.30
2018-07-15T15:26:55.121Z,42.92
2018-07-15T15:29:22.156Z,42.99
2018-07-15T15:31:49.196Z,42.17
2018-07-15T15:34:16.242Z,42.25
2018-07-15T15:36:43.304Z,42.03
2018-07-15T15:39:10.349Z,42.39
2018-07-15T15:41:37.406Z,42.83
2018-07-15T15:44:04.513Z,43.26
2018-07-15T15:46:31.505Z,43.74
2018-07-15T15:48:58.609Z,43.79
2018-07-15T15:51:25.624Z,43.85
2018-07-15T15:53:52.846Z,43.71
2018-07-15T15:56:19.824Z,44.24
2018-07-15T15:58:46.943Z,43.09
2018-07-15T16:01:13.957Z,43.07
2018-07-15T16:03:41.096Z,43.06
2018-07-15T16:06:08.148Z,43.67
2018-07-15T16:08:35.164Z,44.44
2018-07-15T16:11:02.172Z,44.89
2018-07-15T16:13:29.540Z,44.66
2018-07-15T16:15:56.520Z,44.67
2018-07-15T16:18:23.493Z,43.92
2018-07-15T16:20:50.477Z,43.69
2018-07-15T16:23:17.649Z,43.62
2018-07-15T16:25:44.627Z,43.15
2018-07-15T16:28:11.661Z,43.34
2018-07-15T16:30:38.812Z,42.44
2018-07-15T16:33:05.996Z,42.57
2018-07-15T16:35:33.039Z,42.17
2018-07-15T16:38:00.067Z,42.59
2018-07-15T16:40:27.049Z,42.41
2018-07-15T16:42:54.114Z,41.27
2018-07-15T16:45:21.126Z,41.72
2018-07-15T16:47:48.329Z,41.82
2018-07-15T16:50:15.373Z,41.88
2018-07-15T16:52:42.340Z,42.29
2018-07-15T16:55:09.425Z,42.11
2018-07-15T16:57:36.577Z,42.67
2018-07-15T17:00:04.054Z,42.43
2018-07-15T17:02:31.049Z,42.71
2018-07-15T17:04:58.041Z,43.28
2018-07-15T17:07:25.096Z,44.01
2018-07-15T17:09:52.105Z,43.28
2018-07-15T17:12:19.467Z,43.99
2018-07-15T17:14:46.566Z,43.45
2018-07-15T17:17:13.588Z,42.66
2018-07-15T17:19:40.610Z,42.95
2018-07-15T17:22:07.637Z,43.07
2018-07-15T17:24:34.641Z,42.43
2018-07-15T17:27:01.625Z,43.28
2018-07-15T17:29:28.645Z,43.35
2018-07-15T17:31:56.055Z,43.31
2018-07-15T17:34:23.033Z,43.87
2018-07-15T17:36:50.224Z,44.26
2018-07-15T17:39:17.354Z,44.26
2018-07-15T17:41:44.391Z,45.26
2018-07-15T17:44:11.381Z,45.10
2018-07-15T17:46:38.426Z,45.32
2018-07-15T17:49:05.433Z,45.49
2018-07-15T17:51:32.453Z,45.59
2018-07-15T17:53:59.533Z,45.74
2018-07-15T17:56:26.635Z,45.46
2018-07-15T17:58:53.751Z,46.03
2018-07-15T18:01:20.677Z,46.21
2018-07-15T18:03:48.000Z,45.52
2018-07-15T18:06:14.968Z,46.05
2018-07-15T18:08:42.950Z,46.05
2018-07-15T18:11:09.974Z,46.88
2018-07-15T18:13:36.983Z,47.30
2018-07-15T18:16:04.110Z,48.52
2018-07-15T18:18:31.106Z,48.90
2018-07-15T18:20:58.157Z,48.37
2018-07-15T18:23:25.157Z,48.49
2018-07-15T18:25:52.188Z,49.14
2018-07-15T18:28:19.205Z,49.27
2018-07-15T18:30:46.262Z,49.73
2018-07-15T18:33:13.262Z,50.06
2018-07-15T18:35:40.573Z,50.53
2018-07-15T18:38:07.574Z,50.90
2018-07-15T18:40:34.589Z,52.25
2018-07-15T18:43:01.583Z,51.93
2018-07-15T18:45:28.600Z,52.18
2018-07-15T18:47:55.817Z,53.13
2018-07-15T18:50:22.815Z,53.13
2018-07-15T18:52:49.864Z,54.50
2018-07-15T18:55:16.873Z,54.79
2018-07-15T18:57:43.859Z,55.20
2018-07-15T19:00:11.069Z,55.13
2018-07-15T19:02:38.077Z,54.88
2018-07-15T19:05:05.633Z,55.48
2018-07-15T19:07:32.915Z,56.92
2018-07-15T19:09:59.910Z,56.83
2018-07-15T19:12:26.929Z,57.36
2018-07-15T19:14:53.917Z,57.54
2018-07-15T19:17:20.889Z,58.13
2018-07-15T19:19:47.964Z,57.94
2018-07-15T19:22:14.933Z,58.67
2018-07-15T19:24:42.493Z,58.62
2018-07-15T19:27:09.320Z,59.39
2018-07-15T19:29:36.308Z,58.81
2018-07-15T19:32:03.340Z,59.29
2018-07-15T19:34:30.466Z,59.73
2018-07-15T19:36:57.541Z,59.69
2018-07-15T19:39:25.224Z,59.64
2018-07-15T19:41:52.187Z,60.09
2018-07-15T19:44:19.180Z,60.60
2018-07-15T19:46:46.205Z,60.91
2018-07-15T19:49:13.193Z,62.04
2018-07-15T19:51:40.193Z,62.19
2018-07-15T19:54:07.320Z,62.43
2018-07-15T19:56:34.334Z,62.99
2018-07-15T19:59:01.317Z,62.37
2018-07-15T20:01:28.360Z,63.20
2018-07-15T20:03:55.363Z,63.18
2018-07-15T20:06:22.361Z,63.71
2018-07-15T20:08:49.362Z,63.72
2018-07-15T20:11:16.369Z,63.95
2018-07-15T20:13:43.377Z,64.40
2018-07-15T20:16:10.370Z,64.37
2018-07-15T20:18:37.698Z,65.30
2018-07-15T20:21:05.369Z,65.80
2018-07-15T20:23:32.426Z,65.48
2018-07-15T20:25:59.445Z,66.53
2018-07-15T20:28:26.518Z,66.65
2018-07-15T20:30:53.537Z,66.45
2018-07-15T20:33:20.536Z,67.27
2018-07-15T20:35:47.550Z,67.33
2018-07-15T20:38:14.585Z,67.44
2018-07-15T20:40:41.561Z,67.14
2018-07-15T20:43:08.552Z,67.67
2018-07-15T20:45:35.582Z,67.72
2018-07-15T20:48:02.581Z,67.51
2018-07-15T20:50:29.628Z,67.86
2018-07-15T20:52:56.673Z,68.12
2018-07-15T20:55:24.342Z,68.32
2018-07-15T20:57:51.447Z,68.25
2018-07-15T21:00:18.713Z,68.44
2018-07-15T21:02:45.765Z,69.07
2018-07-15T21:05:12.729Z,68.72
2018-07-15T21:07:39.735Z,69.00
2018-07-15T21:10:06.745Z,69.27
2018-07-15T21:12:33.706Z,69.46
2018-07-15T21:15:00.733Z,69.87
2018-07-15T21:17:27.729Z,70.43
2018-07-15T21:19:54.765Z,70.95
2018-07-15T21:22:21.774Z,70.32
2018-07-15T21:24:48.772Z,71.31
2018-07-15T21:27:15.761Z,70.86
2018-07-15T21:29:42.754Z,71.44
2018-07-15T21:32:09.781Z,71.62
2018-07-15T21:34:36.895Z,71.90
2018-07-15T21:37:03.903Z,71.31
2018-07-15T21:39:30.876Z,72.11
2018-07-15T21:41:57.900Z,71.79
2018-07-15T21:44:25.072Z,71.73
2018-07-15T21:46:52.144Z,71.98
2018-07-15T21:49:19.137Z,72.16
2018-07-15T21:51:46.193Z,71.95
2018-07-15T21:54:13.197Z,72.62
2018-07-15T21:56:40.182Z,72.61
2018-07-15T21:59:07.162Z,72.58
2018-07-15T22:01:36.704Z,72.81
2018-07-15T22:04:03.730Z,73.37
2018-07-15T22:06:42.369Z,73.61
2018-07-15T22:09:20.981Z,73.49
2018-07-15T22:11:47.967Z,74.04
2018-07-15T22:14:15.077Z,74.04
2018-07-15T22:16:42.154Z,73.66
2018-07-15T22:19:09.149Z,74.09
2018-07-15T22:21:36.193Z,73.72
2018-07-15T22:24:03.257Z,74.19
2018-07-15T22:26:30.257Z,74.10
2018-07-15T22:28:57.245Z,74.53
2018-07-15T22:31:24.274Z,74.38
2018-07-15T22:33:51.510Z,74.96
2018-07-15T22:36:18.561Z,74.46
2018-07-15T22:38:45.549Z,74.71
2018-07-15T22:41:12.561Z,74.78
2018-07-15T22:43:39.593Z,74.76
2018-07-15T22:46:06.585Z,74.42
2018-07-15T22:48:33.773Z,74.84
2018-07-15T22:51:00.793Z,74.22
2018-07-15T22:53:27.825Z,74.52
2018-07-15T22:55:54.812Z,74.41
2018-07-15T22:58:22.028Z,74.59
2018-07-15T23:00:49.038Z,74.88
2018-07-15T23:03:16.033Z,74.05
2018-07-15T23:05:55.449Z,74.79
2018-07-15T23:08:23.406Z,75.12
2018-07-15T23:10:50.451Z,74.90
2018-07-15T23:13:17.922Z,74.91
2018-07-15T23:15:45.268Z,74.50
2018-07-15T23:18:12.331Z,75.04
2018-07-15T23:20:40.139Z,75.08
2018-07-15T23:23:07.933Z,75.24
2018-07-15T23:25:35.073Z,75.54
2018-07-15T23:28:02.829Z,75.99
2018-07-15T23:30:30.617Z,75.69
2018-07-15T23:32:57.849Z,76.28
2018-07-15T23:35:24.997Z,76.18
2018-07-15T23:37:51.995Z,76.24
2018-07-15T23:40:19.145Z,76.33
2018-07-15T23:42:46.285Z,75.77
2018-07-15T23:45:13.261Z,76.27
2018-07-15T23:47:40.283Z,76.06
2018-07-15T23:50:07.357Z,76.49
2018-07-15T23:52:34.348Z,76.21
2018-07-15T23:55:01.419Z,76.07
2018-07-15T23:57:28.746Z,75.47
2018-07-15T23:59:56.100Z,76.14
